Silver City, NM

1:08 AM MST on December 13, 2019 (GMT -0700)
Grant County

Weather History for KSVC - November, 2019

Change the Weather History Date:

Thursday, November 21, 2019

  Actual Average (WUND) Record (WUND)
Temperature  
Mean Temperature 42 °F -  
Max Temperature 48 °F - - (-1)
Min Temperature 37 °F - - (-1)
Degree Days  
Heating Degree Days 22    
Moisture  
Dew Point 40 °F    
Average Humidity 86    
Maximum Humidity 97    
Minimum Humidity 71    
Precipitation  
Precipitation 0.23 in - - ()
Sea Level Pressure  
Sea Level Pressure 29.99 in    
Wind  
Wind Speed 8 mph ()    
Max Wind Speed 31 mph    
Max Gust Speed 36 mph    
Visibility 9.5 miles    
Events Rain , Thunderstorm    
Averages and records for this station are not official NWS values.
T = Trace of Precipitation, MM = Missing Value Source: Averaged Metar Reports

Daily Weather History Graph

Daily Weather History Graph

Search for Another Location

Airport or City:

Astronomy

Nov. 21, 2019 Rise Set
Actual Time 6:47 AM MST 5:08 PM MST
Civil Twilight 6:21 AM MST 5:35 PM MST
Nautical Twilight 5:51 AM MST 6:05 PM MST
Astronomical Twilight 5:21 AM MST 6:34 PM MST
Moon 1:11 AM MST (11/21) 2:17 PM MST (11/21)
Length of Visible Light 11h 13m
Length of Day
10h 21m
Waning Crescent, 29% of the Moon is Illuminated
Nov 21
Waning Crescent
Nov 26
New
Dec 3
First Quarter
Dec 11
Full
Dec 18
Last Quarter

Hourly Weather History & Observations

Time (MST) Temp. Windchill Dew Point Humidity Pressure Visibility Wind Dir Wind Speed Gust Speed Precip Events Conditions
12:15 AM 48.4 °F - 45.5 °F 90% 29.93 in 10.0 mi SE 4.6 mph - N/A   Overcast
12:35 AM 47.7 °F - 45.5 °F 92% 29.93 in 10.0 mi SE 5.8 mph - N/A   Overcast
12:55 AM 47.7 °F - 45.5 °F 92% 29.92 in 10.0 mi SE 8.1 mph - N/A   Overcast
1:15 AM 47.3 °F - 45.5 °F 93% 29.92 in 10.0 mi SE 5.8 mph - N/A   Overcast
1:35 AM 47.5 °F - 45.3 °F 92% 29.94 in 10.0 mi ESE 3.5 mph - N/A   Overcast
1:55 AM 47.7 °F - 44.8 °F 90% 29.93 in 10.0 mi ENE 3.5 mph - N/A   Overcast
2:35 AM 47.7 °F - 45.0 °F 90% 29.93 in - East 5.8 mph - N/A   Unknown
2:55 AM 48.6 °F - 44.2 °F 85% 29.94 in 10.0 mi Calm Calm - N/A   Overcast
3:15 AM 48.7 °F - 44.1 °F 84% 29.93 in 10.0 mi South 3.5 mph - N/A   Overcast
3:35 AM 48.2 °F - 44.1 °F 86% 29.93 in 10.0 mi Calm Calm - N/A   Overcast
4:15 AM 48.2 °F - 42.8 °F 82% 29.92 in 10.0 mi South 4.6 mph - N/A   Overcast
4:35 AM 47.8 °F - 43.3 °F 84% 29.92 in 10.0 mi SSE 3.5 mph - N/A   Overcast
4:55 AM 48.2 °F - 43.2 °F 83% 29.92 in 10.0 mi SSE 3.5 mph - N/A Rain Rain
5:15 AM 47.3 °F - 43.9 °F 88% 29.91 in 10.0 mi SE 4.6 mph - N/A   Overcast
5:35 AM 46.9 °F - 44.2 °F 90% 29.92 in 10.0 mi South 3.5 mph - N/A Rain Rain
5:55 AM 46.9 °F - 43.7 °F 88% 29.92 in 7.0 mi SSW 5.8 mph - 0.01 in Rain Light Rain
6:15 AM 46.4 °F 42.9 °F 44.4 °F 93% 29.92 in 7.0 mi West 6.9 mph - 0.02 in Rain Rain
6:35 AM 45.5 °F 41.3 °F 43.3 °F 92% 29.94 in 5.0 mi WSW 8.1 mph - 0.08 in Rain Rain
6:55 AM 45.1 °F 42.0 °F 43.7 °F 95% 29.94 in 7.0 mi West 5.8 mph - 0.10 in Rain Rain
7:15 AM 45.3 °F 44.0 °F 43.9 °F 95% 29.94 in 7.0 mi WSW 3.5 mph - 0.03 in Rain Rain
7:35 AM 45.5 °F - 44.6 °F 97% 29.94 in 10.0 mi Calm Calm - 0.03 in   Overcast
7:55 AM 45.9 °F - 44.8 °F 96% 29.94 in 7.0 mi Calm Calm - 0.04 in Rain Light Rain
8:15 AM 46.4 °F 42.4 °F 44.8 °F 94% 29.94 in 10.0 mi South 8.1 mph - N/A Rain Light Rain
8:35 AM 46.0 °F 41.9 °F 44.6 °F 95% 29.94 in 7.0 mi SSW 8.1 mph - 0.01 in Rain Light Rain
8:55 AM 46.4 °F 39.8 °F 43.3 °F 89% 29.95 in 10.0 mi SW 16.1 mph 27.6 mph 0.02 in Rain Light Rain
9:15 AM 46.6 °F - 41.9 °F 84% 29.94 in 10.0 mi WSW 21.9 mph 33.4 mph N/A Rain , Thunderstorm Light Thunderstorms and Rain
9:35 AM 45.3 °F 37.6 °F 40.1 °F 82% 29.94 in 7.0 mi SW 19.6 mph 33.4 mph 0.01 in Rain Light Rain
9:55 AM 48.4 °F - 42.4 °F 80% 29.94 in 10.0 mi SW 23.0 mph 32.2 mph 0.01 in   Mostly Cloudy
10:35 AM 48.6 °F - 41.2 °F 76% 29.95 in 10.0 mi West 25.3 mph 33.4 mph N/A   Mostly Cloudy
10:55 AM 45.0 °F 35.1 °F 40.3 °F 84% 29.96 in 10.0 mi WNW 31.1 mph 35.7 mph N/A   Mostly Cloudy
11:15 AM 41.7 °F 31.4 °F 37.2 °F 84% 29.98 in 10.0 mi West 26.5 mph 34.5 mph N/A Rain Light Rain
11:35 AM 40.3 °F 30.4 °F 37.4 °F 89% 29.98 in 10.0 mi WNW 21.9 mph - N/A Rain Light Rain
11:55 AM 39.6 °F 29.7 °F 36.5 °F 89% 29.97 in 10.0 mi NW 20.7 mph 29.9 mph 0.01 in Rain Light Rain
12:15 PM 39.4 °F 29.8 °F 36.7 °F 90% 29.96 in 10.0 mi NW 19.6 mph 27.6 mph N/A Rain Light Rain
12:35 PM 39.6 °F 31.7 °F 36.5 °F 89% 29.96 in 10.0 mi NW 13.8 mph 24.2 mph N/A   Overcast
12:55 PM 40.1 °F 32.7 °F 36.5 °F 87% 29.96 in 10.0 mi NW 12.7 mph - N/A Rain Light Rain
1:15 PM 39.9 °F 31.1 °F 36.7 °F 88% 29.98 in 3.0 mi NW 17.3 mph - 0.03 in Rain Rain
1:35 PM 40.1 °F 34.1 °F 37.0 °F 89% 29.99 in 10.0 mi West 9.2 mph - 0.04 in Rain Light Rain
1:55 PM 42.4 °F 35.7 °F 37.9 °F 84% 29.96 in 10.0 mi WNW 12.7 mph - 0.04 in   Overcast
2:15 PM 42.6 °F 35.6 °F 37.4 °F 82% 29.97 in 10.0 mi NW 13.8 mph 18.4 mph N/A   Scattered Clouds
2:35 PM 43.7 °F 35.4 °F 37.0 °F 77% 29.95 in 10.0 mi WNW 19.6 mph 26.5 mph N/A   Clear
2:55 PM 44.6 °F 37.4 °F 36.3 °F 73% 29.97 in 10.0 mi NW 16.1 mph 19.6 mph N/A   Scattered Clouds
3:35 PM 44.6 °F 38.4 °F 36.7 °F 74% 29.99 in 10.0 mi NW 12.7 mph - N/A   Overcast
3:55 PM 44.2 °F 38.8 °F 36.0 °F 73% 30.00 in 10.0 mi NW 10.4 mph - N/A   Overcast
4:15 PM 44.4 °F 40.0 °F 35.4 °F 71% 30.00 in 10.0 mi NW 8.1 mph - N/A   Overcast
4:35 PM 44.1 °F 39.5 °F 35.1 °F 71% 30.01 in 10.0 mi WNW 8.1 mph - N/A   Overcast
4:55 PM 43.2 °F 38.4 °F 35.1 °F 73% 30.02 in 10.0 mi WNW 8.1 mph - N/A   Mostly Cloudy
5:15 PM 42.3 °F 37.3 °F 35.4 °F 77% 30.02 in 10.0 mi WNW 8.1 mph - N/A   Scattered Clouds
5:35 PM 41.2 °F 35.5 °F 36.0 °F 82% 30.03 in 10.0 mi NW 9.2 mph - N/A   Scattered Clouds
5:55 PM 41.2 °F 36.0 °F 36.0 °F 82% 30.04 in 10.0 mi NW 8.1 mph - N/A   Scattered Clouds
6:15 PM 40.3 °F 36.3 °F 35.8 °F 84% 30.05 in 10.0 mi NW 5.8 mph - N/A   Mostly Cloudy
6:35 PM 40.5 °F 33.6 °F 36.0 °F 84% 30.05 in 10.0 mi NW 11.5 mph - N/A   Mostly Cloudy
6:55 PM 39.6 °F 34.7 °F 35.2 °F 85% 30.07 in 10.0 mi WNW 6.9 mph - N/A   Scattered Clouds
7:15 PM 37.8 °F 31.3 °F 35.2 °F 91% 30.07 in 10.0 mi WNW 9.2 mph - N/A   Clear
7:35 PM 38.1 °F 30.7 °F 35.6 °F 91% 30.07 in 10.0 mi NW 11.5 mph - N/A   Scattered Clouds
7:55 PM 40.1 °F 32.4 °F 35.2 °F 83% 30.08 in 10.0 mi WNW 13.8 mph - N/A   Mostly Cloudy
8:15 PM 39.2 °F 32.0 °F 35.1 °F 85% 30.09 in 10.0 mi WNW 11.5 mph - N/A   Scattered Clouds
8:35 PM 39.6 °F 32.5 °F 35.8 °F 86% 30.09 in 10.0 mi NW 11.5 mph - N/A   Mostly Cloudy
8:55 PM 40.5 °F 34.6 °F 36.1 °F 85% 30.10 in 10.0 mi WNW 9.2 mph - N/A   Overcast
9:15 PM 40.1 °F 34.1 °F 36.5 °F 87% 30.10 in 10.0 mi NW 9.2 mph - N/A   Overcast
9:35 PM 39.4 °F 32.7 °F 36.5 °F 89% 30.11 in 10.0 mi NW 10.4 mph - N/A   Overcast
9:55 PM 39.2 °F 32.5 °F 36.0 °F 88% 30.10 in 10.0 mi NW 10.4 mph - N/A   Scattered Clouds
10:15 PM 38.7 °F 31.4 °F 36.0 °F 90% 30.11 in 10.0 mi WNW 11.5 mph - N/A   Clear
10:35 PM 39.2 °F 32.0 °F 36.7 °F 91% 30.12 in 10.0 mi WNW 11.5 mph - N/A Rain Rain
10:55 PM 39.2 °F 33.6 °F 37.0 °F 92% 30.12 in 10.0 mi WNW 8.1 mph - N/A   Overcast
11:15 PM 39.2 °F 33.6 °F 37.4 °F 93% 30.13 in 10.0 mi WNW 8.1 mph - N/A   Overcast
11:35 PM 38.3 °F 31.9 °F 36.7 °F 94% 30.13 in 10.0 mi NW 9.2 mph - N/A   Overcast
11:55 PM 38.3 °F 32.5 °F 36.7 °F 94% 30.12 in 10.0 mi NNW 8.1 mph - N/A   Overcast